createdAt,value
2022-11-01T00:04:53.020Z,101.30
2022-11-01T00:14:57.684Z,100.57
2022-11-01T00:25:00.920Z,103.43
2022-11-01T00:35:06.790Z,105.87
2022-11-01T00:45:11.107Z,104.33
2022-11-01T00:55:16.111Z,103.90
2022-11-01T01:05:19.681Z,103.03
2022-11-01T01:15:24.367Z,104.90
2022-11-01T01:25:27.681Z,103.77
2022-11-01T01:35:32.415Z,100.53
2022-11-01T01:45:38.921Z,103.93
2022-11-01T01:55:51.279Z,104.27
2022-11-01T02:05:58.748Z,103.27
2022-11-01T02:16:21.910Z,103.03
2022-11-01T02:26:55.940Z,107.27
2022-11-01T02:37:05.484Z,111.60
2022-11-01T02:47:11.972Z,109.70
2022-11-01T02:57:32.297Z,110.80
2022-11-01T03:07:35.703Z,111.43
2022-11-01T03:17:50.878Z,113.63
2022-11-01T03:27:56.324Z,112.63
2022-11-01T03:38:07.603Z,114.13
2022-11-01T03:48:11.587Z,115.33
2022-11-01T03:58:16.263Z,118.63
2022-11-01T04:08:19.655Z,117.27
2022-11-01T04:18:43.870Z,117.00
2022-11-01T04:28:57.143Z,114.70
2022-11-01T04:39:02.135Z,117.93
2022-11-01T04:49:05.399Z,120.07
2022-11-01T04:59:09.993Z,122.57
2022-11-01T05:09:13.304Z,124.13
2022-11-01T05:19:18.626Z,111.30
2022-11-01T05:29:32.892Z,106.10
2022-11-01T05:39:38.059Z,92.90
2022-11-01T05:49:41.328Z,88.20
2022-11-01T05:59:46.308Z,93.23
2022-11-01T06:09:49.596Z,90.33
2022-11-01T06:19:54.354Z,93.60
2022-11-01T06:29:57.632Z,99.17
2022-11-01T06:40:02.321Z,91.63
2022-11-01T06:50:06.730Z,91.97
2022-11-01T07:00:13.445Z,94.07
2022-11-01T07:10:17.166Z,92.50
2022-11-01T07:20:21.769Z,92.90
2022-11-01T07:30:25.561Z,92.53
2022-11-01T07:40:30.599Z,92.80
2022-11-01T07:50:35.439Z,94.70
2022-11-01T08:00:41.053Z,101.90
2022-11-01T08:10:45.049Z,100.13
2022-11-01T08:20:50.409Z,102.50
2022-11-01T08:30:53.714Z,101.93
2022-11-01T08:40:58.574Z,106.17
2022-11-01T08:51:03.571Z,109.53
2022-11-01T09:01:08.388Z,103.17
2022-11-01T09:11:11.792Z,103.83
2022-11-01T09:21:17.202Z,101.37
2022-11-01T09:31:21.592Z,103.87
2022-11-01T09:41:36.873Z,99.17
2022-11-01T09:51:40.304Z,101.03
2022-11-01T10:01:54.626Z,100.00
2022-11-01T10:12:13.672Z,94.43
2022-11-01T10:22:29.228Z,99.60
2022-11-01T10:32:40.598Z,107.78
2022-11-01T10:42:45.635Z,106.10
2022-11-01T10:52:54.087Z,111.32
2022-11-01T11:03:02.174Z,112.53
2022-11-01T11:13:09.699Z,115.90
2022-11-01T11:23:14.398Z,122.85
2022-11-01T11:33:20.006Z,125.90
2022-11-01T11:43:31.761Z,133.68
2022-11-01T11:53:35.375Z,171.32
2022-11-01T12:03:48.379Z,150.70
2022-11-01T12:14:03.273Z,130.63
2022-11-01T12:24:18.054Z,130.98
2022-11-01T12:34:25.931Z,127.45
2022-11-01T12:44:37.405Z,128.20
2022-11-01T12:54:44.429Z,127.18
2022-11-01T13:04:55.271Z,123.85
2022-11-01T13:15:09.949Z,125.22
2022-11-01T13:25:21.921Z,124.43
2022-11-01T13:35:43.240Z,121.70
2022-11-01T13:46:22.732Z,114.18
2022-11-01T13:56:33.998Z,108.63
2022-11-01T14:06:39.867Z,107.30
2022-11-01T14:16:43.553Z,103.72
2022-11-01T14:27:20.280Z,101.63
2022-11-01T14:37:27.361Z,97.72
2022-11-01T14:47:40.868Z,95.15
2022-11-01T14:57:45.393Z,95.67
2022-11-01T15:07:54.687Z,91.97
2022-11-01T15:18:00.618Z,96.83
2022-11-01T15:28:06.782Z,94.90
2022-11-01T15:38:20.741Z,92.10
2022-11-01T15:48:30.044Z,91.90
2022-11-01T15:58:37.933Z,95.13
2022-11-01T16:08:48.061Z,93.37
2022-11-01T16:18:54.908Z,96.17
2022-11-01T16:28:59.569Z,89.87
2022-11-01T16:39:19.337Z,90.30
2022-11-01T16:49:27.097Z,93.33
2022-11-01T16:59:36.867Z,96.23
2022-11-01T17:09:41.540Z,108.80
2022-11-01T17:19:50.631Z,105.33
2022-11-01T17:29:55.972Z,107.67
2022-11-01T17:39:59.670Z,105.70
2022-11-01T17:50:04.606Z,106.40
2022-11-01T18:00:10.032Z,104.47
2022-11-01T18:10:22.132Z,110.50
2022-11-01T18:20:42.695Z,108.73
2022-11-01T18:30:52.621Z,108.90
2022-11-01T18:41:00.342Z,97.63
2022-11-01T18:51:14.401Z,94.47
2022-11-01T19:01:20.615Z,96.27
2022-11-01T19:11:28.067Z,96.40
2022-11-01T19:21:35.754Z,94.27
2022-11-01T19:31:46.092Z,110.80
2022-11-01T19:41:49.980Z,115.53
2022-11-01T19:52:18.083Z,98.80
2022-11-01T20:02:23.856Z,97.53
2022-11-01T20:12:28.601Z,98.70
2022-11-01T20:22:31.997Z,96.30
2022-11-01T20:32:37.913Z,95.43
2022-11-01T20:42:41.564Z,98.97
2022-11-01T20:52:46.727Z,109.87
2022-11-01T21:02:50.542Z,96.47
2022-11-01T21:12:55.324Z,96.37
2022-11-01T21:23:03.568Z,97.60
2022-11-01T21:33:31.484Z,100.27
2022-11-01T21:43:35.695Z,97.23
2022-11-01T21:53:40.923Z,97.40
2022-11-01T22:03:44.271Z,97.57
2022-11-01T22:13:49.030Z,102.77
2022-11-01T22:23:52.353Z,97.27
2022-11-01T22:33:59.057Z,98.00
2022-11-01T22:44:06.002Z,98.43
2022-11-01T22:54:31.534Z,100.00
2022-11-01T23:04:36.791Z,104.47
2022-11-01T23:14:46.752Z,101.53
2022-11-01T23:24:52.033Z,100.27
2022-11-01T23:35:10.239Z,98.13
2022-11-01T23:45:27.152Z,99.73
2022-11-01T23:55:38.036Z,104.17
